sensor_id;sensor_type;location;lat;lon;timestamp;P1;durP1;ratioP1;P2;durP2;ratioP2
32918;SDS011;19280;42.646;21.150;2023-04-07T00:00:02;85.30;;;44.55;;
32918;SDS011;19280;42.646;21.150;2023-04-07T00:02:30;71.68;;;39.20;;
32918;SDS011;19280;42.646;21.150;2023-04-07T00:04:57;71.93;;;37.83;;
32918;SDS011;19280;42.646;21.150;2023-04-07T00:07:23;65.85;;;35.55;;
32918;SDS011;19280;42.646;21.150;2023-04-07T00:09:49;62.55;;;35.92;;
32918;SDS011;19280;42.646;21.150;2023-04-07T00:12:15;74.07;;;41.53;;
32918;SDS011;19280;42.646;21.150;2023-04-07T00:14:41;76.38;;;43.90;;
32918;SDS011;19280;42.646;21.150;2023-04-07T00:17:07;84.15;;;43.65;;
32918;SDS011;19280;42.646;21.150;2023-04-07T00:19:33;70.68;;;42.97;;
32918;SDS011;19280;42.646;21.150;2023-04-07T00:22:00;66.50;;;38.17;;
32918;SDS011;19280;42.646;21.150;2023-04-07T00:24:26;79.82;;;44.10;;
32918;SDS011;19280;42.646;21.150;2023-04-07T00:26:52;75.72;;;43.33;;
32918;SDS011;19280;42.646;21.150;2023-04-07T00:29:18;80.18;;;44.83;;
32918;SDS011;19280;42.646;21.150;2023-04-07T00:31:44;98.85;;;52.38;;
32918;SDS011;19280;42.646;21.150;2023-04-07T00:34:10;92.72;;;48.58;;
32918;SDS011;19280;42.646;21.150;2023-04-07T00:36:36;79.53;;;42.35;;
32918;SDS011;19280;42.646;21.150;2023-04-07T00:39:02;81.95;;;42.13;;
32918;SDS011;19280;42.646;21.150;2023-04-07T00:41:28;70.13;;;37.88;;
32918;SDS011;19280;42.646;21.150;2023-04-07T00:43:54;77.30;;;40.95;;
32918;SDS011;19280;42.646;21.150;2023-04-07T00:46:21;70.88;;;39.40;;
32918;SDS011;19280;42.646;21.150;2023-04-07T00:48:48;71.60;;;37.30;;
32918;SDS011;19280;42.646;21.150;2023-04-07T00:51:14;79.85;;;39.75;;
32918;SDS011;19280;42.646;21.150;2023-04-07T00:53:40;71.80;;;39.40;;
32918;SDS011;19280;42.646;21.150;2023-04-07T00:56:06;72.43;;;39.72;;
32918;SDS011;19280;42.646;21.150;2023-04-07T00:58:33;75.32;;;40.97;;
32918;SDS011;19280;42.646;21.150;2023-04-07T01:01:03;75.63;;;39.33;;
32918;SDS011;19280;42.646;21.150;2023-04-07T01:03:33;64.13;;;33.22;;
32918;SDS011;19280;42.646;21.150;2023-04-07T01:06:01;90.55;;;48.60;;
32918;SDS011;19280;42.646;21.150;2023-04-07T01:11:02;86.78;;;47.30;;
32918;SDS011;19280;42.646;21.150;2023-04-07T01:13:35;90.28;;;44.72;;
32918;SDS011;19280;42.646;21.150;2023-04-07T01:16:03;97.82;;;50.70;;
32918;SDS011;19280;42.646;21.150;2023-04-07T01:18:32;120.82;;;61.15;;
32918;SDS011;19280;42.646;21.150;2023-04-07T01:21:01;118.40;;;57.63;;
32918;SDS011;19280;42.646;21.150;2023-04-07T01:23:35;132.98;;;56.22;;
32918;SDS011;19280;42.646;21.150;2023-04-07T01:26:18;110.07;;;54.45;;
32918;SDS011;19280;42.646;21.150;2023-04-07T01:28:54;104.30;;;52.85;;
32918;SDS011;19280;42.646;21.150;2023-04-07T01:31:21;125.53;;;61.67;;
32918;SDS011;19280;42.646;21.150;2023-04-07T01:33:47;123.43;;;62.15;;
32918;SDS011;19280;42.646;21.150;2023-04-07T01:36:14;249.90;;;93.72;;
32918;SDS011;19280;42.646;21.150;2023-04-07T01:38:41;166.68;;;70.57;;
32918;SDS011;19280;42.646;21.150;2023-04-07T01:41:09;143.65;;;60.40;;
32918;SDS011;19280;42.646;21.150;2023-04-07T01:43:36;97.45;;;49.53;;
32918;SDS011;19280;42.646;21.150;2023-04-07T01:46:03;131.48;;;58.72;;
32918;SDS011;19280;42.646;21.150;2023-04-07T01:48:30;191.43;;;75.10;;
32918;SDS011;19280;42.646;21.150;2023-04-07T01:50:56;102.75;;;49.38;;
32918;SDS011;19280;42.646;21.150;2023-04-07T01:53:22;89.10;;;45.55;;
32918;SDS011;19280;42.646;21.150;2023-04-07T01:55:49;103.35;;;48.15;;
32918;SDS011;19280;42.646;21.150;2023-04-07T01:58:15;118.88;;;55.17;;
32918;SDS011;19280;42.646;21.150;2023-04-07T02:00:41;88.10;;;45.55;;
32918;SDS011;19280;42.646;21.150;2023-04-07T02:03:08;104.32;;;52.92;;
32918;SDS011;19280;42.646;21.150;2023-04-07T02:05:35;114.57;;;57.33;;
32918;SDS011;19280;42.646;21.150;2023-04-07T02:08:04;115.18;;;55.25;;
32918;SDS011;19280;42.646;21.150;2023-04-07T02:10:31;116.55;;;56.63;;
32918;SDS011;19280;42.646;21.150;2023-04-07T02:13:00;83.80;;;43.78;;
32918;SDS011;19280;42.646;21.150;2023-04-07T02:15:29;74.45;;;40.25;;
32918;SDS011;19280;42.646;21.150;2023-04-07T02:17:56;68.88;;;33.33;;
32918;SDS011;19280;42.646;21.150;2023-04-07T02:20:23;66.18;;;34.00;;
32918;SDS011;19280;42.646;21.150;2023-04-07T02:22:49;63.75;;;32.55;;
32918;SDS011;19280;42.646;21.150;2023-04-07T02:27:47;63.38;;;33.58;;
32918;SDS011;19280;42.646;21.150;2023-04-07T02:30:13;66.78;;;36.67;;
32918;SDS011;19280;42.646;21.150;2023-04-07T02:32:39;69.00;;;35.67;;
32918;SDS011;19280;42.646;21.150;2023-04-07T02:35:06;63.33;;;34.17;;
32918;SDS011;19280;42.646;21.150;2023-04-07T02:37:32;61.97;;;33.88;;
32918;SDS011;19280;42.646;21.150;2023-04-07T02:39:58;71.15;;;37.55;;
32918;SDS011;19280;42.646;21.150;2023-04-07T02:42:24;66.05;;;32.13;;
32918;SDS011;19280;42.646;21.150;2023-04-07T02:44:50;69.50;;;35.55;;
32918;SDS011;19280;42.646;21.150;2023-04-07T02:47:16;82.82;;;41.33;;
32918;SDS011;19280;42.646;21.150;2023-04-07T02:49:42;65.15;;;34.22;;
32918;SDS011;19280;42.646;21.150;2023-04-07T02:52:08;43.67;;;23.80;;
32918;SDS011;19280;42.646;21.150;2023-04-07T02:54:35;49.88;;;29.20;;
32918;SDS011;19280;42.646;21.150;2023-04-07T02:57:01;47.78;;;27.92;;
32918;SDS011;19280;42.646;21.150;2023-04-07T02:59:27;60.10;;;29.50;;
32918;SDS011;19280;42.646;21.150;2023-04-07T03:01:53;54.63;;;30.35;;
32918;SDS011;19280;42.646;21.150;2023-04-07T03:04:20;61.58;;;31.63;;
32918;SDS011;19280;42.646;21.150;2023-04-07T03:06:46;62.35;;;31.73;;
32918;SDS011;19280;42.646;21.150;2023-04-07T03:09:12;63.35;;;33.00;;
32918;SDS011;19280;42.646;21.150;2023-04-07T03:11:38;60.50;;;31.50;;
32918;SDS011;19280;42.646;21.150;2023-04-07T03:14:05;55.17;;;28.08;;
32918;SDS011;19280;42.646;21.150;2023-04-07T03:16:31;54.17;;;28.73;;
32918;SDS011;19280;42.646;21.150;2023-04-07T03:18:57;55.38;;;30.65;;
32918;SDS011;19280;42.646;21.150;2023-04-07T03:21:23;50.17;;;28.15;;
32918;SDS011;19280;42.646;21.150;2023-04-07T03:23:49;57.05;;;30.58;;
32918;SDS011;19280;42.646;21.150;2023-04-07T03:26:15;56.08;;;30.42;;
32918;SDS011;19280;42.646;21.150;2023-04-07T03:28:43;55.63;;;27.75;;
32918;SDS011;19280;42.646;21.150;2023-04-07T03:31:09;58.13;;;30.33;;
32918;SDS011;19280;42.646;21.150;2023-04-07T03:33:35;54.65;;;28.48;;
32918;SDS011;19280;42.646;21.150;2023-04-07T03:36:01;55.47;;;28.80;;
32918;SDS011;19280;42.646;21.150;2023-04-07T03:38:27;55.50;;;28.50;;
32918;SDS011;19280;42.646;21.150;2023-04-07T03:40:53;50.22;;;26.70;;
32918;SDS011;19280;42.646;21.150;2023-04-07T03:43:19;55.08;;;28.20;;
32918;SDS011;19280;42.646;21.150;2023-04-07T03:45:46;44.72;;;25.60;;
32918;SDS011;19280;42.646;21.150;2023-04-07T03:48:12;51.25;;;27.33;;
32918;SDS011;19280;42.646;21.150;2023-04-07T03:50:38;59.28;;;27.77;;
32918;SDS011;19280;42.646;21.150;2023-04-07T03:53:04;50.47;;;26.70;;
32918;SDS011;19280;42.646;21.150;2023-04-07T03:55:31;60.42;;;27.95;;
32918;SDS011;19280;42.646;21.150;2023-04-07T03:57:58;57.83;;;28.30;;
32918;SDS011;19280;42.646;21.150;2023-04-07T04:00:24;49.10;;;27.02;;
32918;SDS011;19280;42.646;21.150;2023-04-07T04:02:51;47.00;;;26.40;;
32918;SDS011;19280;42.646;21.150;2023-04-07T04:05:17;51.38;;;27.00;;
32918;SDS011;19280;42.646;21.150;2023-04-07T04:07:43;55.53;;;28.88;;
32918;SDS011;19280;42.646;21.150;2023-04-07T04:10:09;49.83;;;26.65;;
32918;SDS011;19280;42.646;21.150;2023-04-07T04:12:36;49.10;;;27.75;;
32918;SDS011;19280;42.646;21.150;2023-04-07T04:15:02;55.15;;;26.98;;
32918;SDS011;19280;42.646;21.150;2023-04-07T04:17:28;56.78;;;26.88;;
32918;SDS011;19280;42.646;21.150;2023-04-07T04:19:54;50.88;;;27.67;;
32918;SDS011;19280;42.646;21.150;2023-04-07T04:22:20;50.10;;;26.75;;
32918;SDS011;19280;42.646;21.150;2023-04-07T04:24:46;50.65;;;26.60;;
32918;SDS011;19280;42.646;21.150;2023-04-07T04:27:13;51.10;;;26.50;;
32918;SDS011;19280;42.646;21.150;2023-04-07T04:29:39;53.00;;;26.98;;
32918;SDS011;19280;42.646;21.150;2023-04-07T04:32:05;51.60;;;26.05;;
32918;SDS011;19280;42.646;21.150;2023-04-07T04:34:31;54.50;;;27.30;;
32918;SDS011;19280;42.646;21.150;2023-04-07T04:36:58;56.83;;;25.75;;
32918;SDS011;19280;42.646;21.150;2023-04-07T04:39:24;48.97;;;25.95;;
32918;SDS011;19280;42.646;21.150;2023-04-07T04:41:50;51.72;;;28.17;;
32918;SDS011;19280;42.646;21.150;2023-04-07T04:44:17;53.85;;;26.95;;
32918;SDS011;19280;42.646;21.150;2023-04-07T04:46:43;46.90;;;24.65;;
32918;SDS011;19280;42.646;21.150;2023-04-07T04:49:09;49.22;;;24.58;;
32918;SDS011;19280;42.646;21.150;2023-04-07T04:51:35;52.80;;;27.05;;
32918;SDS011;19280;42.646;21.150;2023-04-07T04:54:01;42.30;;;24.67;;
32918;SDS011;19280;42.646;21.150;2023-04-07T04:56:28;48.92;;;25.45;;
32918;SDS011;19280;42.646;21.150;2023-04-07T04:58:54;48.47;;;24.05;;
32918;SDS011;19280;42.646;21.150;2023-04-07T05:01:20;54.92;;;26.83;;
32918;SDS011;19280;42.646;21.150;2023-04-07T05:03:46;51.00;;;26.33;;
32918;SDS011;19280;42.646;21.150;2023-04-07T05:06:12;55.63;;;26.15;;
32918;SDS011;19280;42.646;21.150;2023-04-07T05:08:38;58.95;;;24.77;;
32918;SDS011;19280;42.646;21.150;2023-04-07T05:11:05;44.67;;;23.55;;
32918;SDS011;19280;42.646;21.150;2023-04-07T05:13:31;44.47;;;23.30;;
32918;SDS011;19280;42.646;21.150;2023-04-07T05:15:57;42.92;;;23.48;;
32918;SDS011;19280;42.646;21.150;2023-04-07T05:18:24;42.38;;;24.25;;
32918;SDS011;19280;42.646;21.150;2023-04-07T05:20:50;45.47;;;24.00;;
32918;SDS011;19280;42.646;21.150;2023-04-07T05:23:16;38.78;;;22.48;;
32918;SDS011;19280;42.646;21.150;2023-04-07T05:25:42;39.90;;;23.05;;
32918;SDS011;19280;42.646;21.150;2023-04-07T05:28:08;44.90;;;21.52;;
32918;SDS011;19280;42.646;21.150;2023-04-07T05:30:34;40.38;;;22.10;;
32918;SDS011;19280;42.646;21.150;2023-04-07T05:33:00;40.53;;;21.38;;
32918;SDS011;19280;42.646;21.150;2023-04-07T05:35:26;37.75;;;21.95;;
32918;SDS011;19280;42.646;21.150;2023-04-07T05:37:52;39.58;;;20.20;;
32918;SDS011;19280;42.646;21.150;2023-04-07T05:40:18;33.28;;;20.58;;
32918;SDS011;19280;42.646;21.150;2023-04-07T05:42:44;32.70;;;21.40;;
32918;SDS011;19280;42.646;21.150;2023-04-07T05:45:10;33.10;;;20.08;;
32918;SDS011;19280;42.646;21.150;2023-04-07T05:47:36;33.45;;;18.63;;
32918;SDS011;19280;42.646;21.150;2023-04-07T05:50:02;29.20;;;14.75;;
32918;SDS011;19280;42.646;21.150;2023-04-07T05:52:29;19.45;;;13.63;;
32918;SDS011;19280;42.646;21.150;2023-04-07T05:54:55;23.02;;;15.55;;
32918;SDS011;19280;42.646;21.150;2023-04-07T05:57:21;29.38;;;18.75;;
32918;SDS011;19280;42.646;21.150;2023-04-07T05:59:47;24.17;;;16.77;;
32918;SDS011;19280;42.646;21.150;2023-04-07T06:02:13;20.73;;;12.15;;
32918;SDS011;19280;42.646;21.150;2023-04-07T06:04:40;21.60;;;15.10;;
32918;SDS011;19280;42.646;21.150;2023-04-07T06:07:06;32.38;;;18.58;;
32918;SDS011;19280;42.646;21.150;2023-04-07T06:09:32;24.17;;;14.63;;
32918;SDS011;19280;42.646;21.150;2023-04-07T06:11:58;21.02;;;12.80;;
32918;SDS011;19280;42.646;21.150;2023-04-07T06:14:25;25.67;;;13.93;;
32918;SDS011;19280;42.646;21.150;2023-04-07T06:16:51;18.58;;;12.15;;
32918;SDS011;19280;42.646;21.150;2023-04-07T06:19:17;20.50;;;13.10;;
32918;SDS011;19280;42.646;21.150;2023-04-07T06:21:43;19.02;;;12.73;;
32918;SDS011;19280;42.646;21.150;2023-04-07T06:24:09;20.90;;;13.43;;
32918;SDS011;19280;42.646;21.150;2023-04-07T06:26:35;24.48;;;12.77;;
32918;SDS011;19280;42.646;21.150;2023-04-07T06:29:01;21.67;;;12.75;;
32918;SDS011;19280;42.646;21.150;2023-04-07T06:31:28;19.45;;;11.27;;
32918;SDS011;19280;42.646;21.150;2023-04-07T06:33:54;17.05;;;12.18;;
32918;SDS011;19280;42.646;21.150;2023-04-07T06:36:20;17.13;;;11.63;;
32918;SDS011;19280;42.646;21.150;2023-04-07T06:38:47;17.20;;;12.20;;
32918;SDS011;19280;42.646;21.150;2023-04-07T06:41:13;25.85;;;13.90;;
32918;SDS011;19280;42.646;21.150;2023-04-07T06:43:50;21.88;;;12.15;;
32918;SDS011;19280;42.646;21.150;2023-04-07T06:46:16;19.33;;;12.43;;
32918;SDS011;19280;42.646;21.150;2023-04-07T06:48:42;21.20;;;12.82;;
32918;SDS011;19280;42.646;21.150;2023-04-07T06:51:09;26.30;;;15.10;;
32918;SDS011;19280;42.646;21.150;2023-04-07T06:53:35;23.30;;;15.38;;
32918;SDS011;19280;42.646;21.150;2023-04-07T06:56:10;25.42;;;16.58;;
32918;SDS011;19280;42.646;21.150;2023-04-07T06:58:38;27.85;;;17.70;;
32918;SDS011;19280;42.646;21.150;2023-04-07T07:01:04;30.25;;;18.38;;
32918;SDS011;19280;42.646;21.150;2023-04-07T07:03:31;26.65;;;17.75;;
32918;SDS011;19280;42.646;21.150;2023-04-07T07:05:58;29.85;;;17.67;;
32918;SDS011;19280;42.646;21.150;2023-04-07T07:08:26;28.63;;;16.90;;
32918;SDS011;19280;42.646;21.150;2023-04-07T07:10:53;26.20;;;16.08;;
32918;SDS011;19280;42.646;21.150;2023-04-07T07:13:21;24.70;;;14.80;;
32918;SDS011;19280;42.646;21.150;2023-04-07T07:15:52;21.38;;;15.05;;
32918;SDS011;19280;42.646;21.150;2023-04-07T07:18:19;18.80;;;12.88;;
32918;SDS011;19280;42.646;21.150;2023-04-07T07:20:45;20.58;;;14.07;;
32918;SDS011;19280;42.646;21.150;2023-04-07T07:23:11;19.90;;;14.20;;
32918;SDS011;19280;42.646;21.150;2023-04-07T07:25:37;25.60;;;14.57;;
32918;SDS011;19280;42.646;21.150;2023-04-07T07:28:03;21.00;;;14.73;;
32918;SDS011;19280;42.646;21.150;2023-04-07T07:30:29;22.13;;;14.02;;
32918;SDS011;19280;42.646;21.150;2023-04-07T07:32:55;24.10;;;15.15;;
32918;SDS011;19280;42.646;21.150;2023-04-07T07:35:21;22.08;;;15.02;;
32918;SDS011;19280;42.646;21.150;2023-04-07T07:37:49;22.95;;;14.95;;
32918;SDS011;19280;42.646;21.150;2023-04-07T07:40:16;24.88;;;14.82;;
32918;SDS011;19280;42.646;21.150;2023-04-07T07:42:43;23.33;;;15.07;;
32918;SDS011;19280;42.646;21.150;2023-04-07T07:45:09;22.42;;;13.35;;
32918;SDS011;19280;42.646;21.150;2023-04-07T07:47:37;26.63;;;13.48;;
32918;SDS011;19280;42.646;21.150;2023-04-07T07:50:03;22.85;;;12.23;;
32918;SDS011;19280;42.646;21.150;2023-04-07T07:52:29;15.60;;;10.38;;
32918;SDS011;19280;42.646;21.150;2023-04-07T07:54:55;15.00;;;10.82;;
32918;SDS011;19280;42.646;21.150;2023-04-07T07:57:21;17.25;;;10.80;;
32918;SDS011;19280;42.646;21.150;2023-04-07T07:59:47;17.30;;;10.13;;
32918;SDS011;19280;42.646;21.150;2023-04-07T08:02:13;16.08;;;9.05;;
32918;SDS011;19280;42.646;21.150;2023-04-07T08:04:39;18.40;;;10.00;;
32918;SDS011;19280;42.646;21.150;2023-04-07T08:07:06;19.67;;;9.38;;
32918;SDS011;19280;42.646;21.150;2023-04-07T08:09:32;13.27;;;8.50;;
32918;SDS011;19280;42.646;21.150;2023-04-07T08:11:58;16.73;;;8.60;;
32918;SDS011;19280;42.646;21.150;2023-04-07T08:14:24;13.60;;;8.65;;
32918;SDS011;19280;42.646;21.150;2023-04-07T08:16:50;14.07;;;8.68;;
32918;SDS011;19280;42.646;21.150;2023-04-07T08:19:16;20.85;;;9.55;;
32918;SDS011;19280;42.646;21.150;2023-04-07T08:21:42;14.45;;;9.00;;
32918;SDS011;19280;42.646;21.150;2023-04-07T08:24:08;22.58;;;10.25;;
32918;SDS011;19280;42.646;21.150;2023-04-07T08:26:35;14.85;;;9.68;;
32918;SDS011;19280;42.646;21.150;2023-04-07T08:29:01;14.82;;;9.48;;
32918;SDS011;19280;42.646;21.150;2023-04-07T08:31:27;17.02;;;9.73;;
32918;SDS011;19280;42.646;21.150;2023-04-07T08:33:53;14.50;;;9.05;;
32918;SDS011;19280;42.646;21.150;2023-04-07T08:36:24;12.07;;;8.93;;
32918;SDS011;19280;42.646;21.150;2023-04-07T08:38:51;14.15;;;8.57;;
32918;SDS011;19280;42.646;21.150;2023-04-07T08:41:26;12.05;;;8.80;;
32918;SDS011;19280;42.646;21.150;2023-04-07T08:43:54;12.52;;;8.25;;
32918;SDS011;19280;42.646;21.150;2023-04-07T08:46:21;14.00;;;8.05;;
32918;SDS011;19280;42.646;21.150;2023-04-07T08:48:50;12.45;;;8.10;;
32918;SDS011;19280;42.646;21.150;2023-04-07T08:51:20;13.00;;;7.80;;
32918;SDS011;19280;42.646;21.150;2023-04-07T08:53:49;16.80;;;9.13;;
32918;SDS011;19280;42.646;21.150;2023-04-07T08:56:16;13.23;;;8.77;;
32918;SDS011;19280;42.646;21.150;2023-04-07T08:58:43;17.25;;;8.77;;
32918;SDS011;19280;42.646;21.150;2023-04-07T09:01:09;15.60;;;7.53;;
32918;SDS011;19280;42.646;21.150;2023-04-07T09:03:35;11.75;;;7.50;;
32918;SDS011;19280;42.646;21.150;2023-04-07T09:06:01;12.02;;;7.70;;
32918;SDS011;19280;42.646;21.150;2023-04-07T09:08:27;14.15;;;8.00;;
32918;SDS011;19280;42.646;21.150;2023-04-07T09:10:55;15.35;;;8.07;;
32918;SDS011;19280;42.646;21.150;2023-04-07T09:13:25;15.30;;;7.82;;
32918;SDS011;19280;42.646;21.150;2023-04-07T09:15:51;15.45;;;7.47;;
32918;SDS011;19280;42.646;21.150;2023-04-07T09:18:17;12.82;;;8.57;;
32918;SDS011;19280;42.646;21.150;2023-04-07T09:20:56;13.30;;;7.55;;
32918;SDS011;19280;42.646;21.150;2023-04-07T09:23:41;12.35;;;8.20;;
32918;SDS011;19280;42.646;21.150;2023-04-07T09:28:43;17.38;;;8.25;;
32918;SDS011;19280;42.646;21.150;2023-04-07T09:31:10;14.68;;;7.90;;
32918;SDS011;19280;42.646;21.150;2023-04-07T09:33:36;14.07;;;8.45;;
32918;SDS011;19280;42.646;21.150;2023-04-07T09:36:02;13.77;;;8.18;;
32918;SDS011;19280;42.646;21.150;2023-04-07T09:38:33;22.30;;;8.77;;
32918;SDS011;19280;42.646;21.150;2023-04-07T09:41:09;15.15;;;8.45;;
32918;SDS011;19280;42.646;21.150;2023-04-07T09:43:39;11.52;;;7.10;;
32918;SDS011;19280;42.646;21.150;2023-04-07T09:46:15;16.15;;;8.57;;
32918;SDS011;19280;42.646;21.150;2023-04-07T09:48:43;13.82;;;8.00;;
32918;SDS011;19280;42.646;21.150;2023-04-07T09:51:10;20.15;;;9.98;;
32918;SDS011;19280;42.646;21.150;2023-04-07T09:53:46;22.90;;;10.50;;
32918;SDS011;19280;42.646;21.150;2023-04-07T09:56:16;15.00;;;8.35;;
32918;SDS011;19280;42.646;21.150;2023-04-07T09:58:44;13.50;;;6.88;;
32918;SDS011;19280;42.646;21.150;2023-04-07T10:01:11;8.32;;;5.65;;
32918;SDS011;19280;42.646;21.150;2023-04-07T10:03:38;12.95;;;6.10;;
32918;SDS011;19280;42.646;21.150;2023-04-07T10:06:04;9.35;;;5.97;;
32918;SDS011;19280;42.646;21.150;2023-04-07T10:08:32;10.23;;;5.78;;
32918;SDS011;19280;42.646;21.150;2023-04-07T10:10:59;9.88;;;6.10;;
32918;SDS011;19280;42.646;21.150;2023-04-07T10:13:27;10.23;;;5.88;;
32918;SDS011;19280;42.646;21.150;2023-04-07T10:15:54;7.25;;;5.93;;
32918;SDS011;19280;42.646;21.150;2023-04-07T10:18:20;15.50;;;6.35;;
32918;SDS011;19280;42.646;21.150;2023-04-07T10:20:48;9.00;;;5.80;;
32918;SDS011;19280;42.646;21.150;2023-04-07T10:25:58;8.18;;;5.60;;
32918;SDS011;19280;42.646;21.150;2023-04-07T10:28:27;7.80;;;5.80;;
32918;SDS011;19280;42.646;21.150;2023-04-07T10:30:54;12.43;;;5.90;;
32918;SDS011;19280;42.646;21.150;2023-04-07T10:36:06;11.25;;;7.05;;
32918;SDS011;19280;42.646;21.150;2023-04-07T10:38:33;15.40;;;6.47;;
32918;SDS011;19280;42.646;21.150;2023-04-07T10:40:59;26.80;;;6.75;;
32918;SDS011;19280;42.646;21.150;2023-04-07T10:43:40;17.05;;;5.88;;
32918;SDS011;19280;42.646;21.150;2023-04-07T10:46:08;14.65;;;5.70;;
32918;SDS011;19280;42.646;21.150;2023-04-07T10:48:34;10.05;;;5.50;;
32918;SDS011;19280;42.646;21.150;2023-04-07T10:53:30;17.00;;;6.13;;
32918;SDS011;19280;42.646;21.150;2023-04-07T10:55:56;17.00;;;8.43;;
32918;SDS011;19280;42.646;21.150;2023-04-07T10:58:32;20.80;;;10.60;;
32918;SDS011;19280;42.646;21.150;2023-04-07T11:03:37;19.25;;;8.55;;
32918;SDS011;19280;42.646;21.150;2023-04-07T11:06:04;20.70;;;7.43;;
32918;SDS011;19280;42.646;21.150;2023-04-07T11:08:33;15.10;;;6.00;;
32918;SDS011;19280;42.646;21.150;2023-04-07T11:11:00;17.20;;;6.43;;
32918;SDS011;19280;42.646;21.150;2023-04-07T11:13:26;16.98;;;6.75;;
32918;SDS011;19280;42.646;21.150;2023-04-07T11:15:52;15.85;;;6.53;;
32918;SDS011;19280;42.646;21.150;2023-04-07T11:18:19;21.30;;;6.63;;
32918;SDS011;19280;42.646;21.150;2023-04-07T11:20:46;24.42;;;7.57;;
32918;SDS011;19280;42.646;21.150;2023-04-07T11:23:13;18.50;;;6.53;;
32918;SDS011;19280;42.646;21.150;2023-04-07T11:25:43;9.65;;;4.97;;
32918;SDS011;19280;42.646;21.150;2023-04-07T11:28:10;12.20;;;4.45;;
32918;SDS011;19280;42.646;21.150;2023-04-07T11:30:37;11.25;;;4.68;;
32918;SDS011;19280;42.646;21.150;2023-04-07T11:33:05;14.93;;;4.80;;
32918;SDS011;19280;42.646;21.150;2023-04-07T11:35:32;11.02;;;5.05;;
32918;SDS011;19280;42.646;21.150;2023-04-07T11:37:58;12.55;;;6.05;;
32918;SDS011;19280;42.646;21.150;2023-04-07T11:42:58;17.60;;;6.10;;
32918;SDS011;19280;42.646;21.150;2023-04-07T11:45:26;15.65;;;6.20;;
32918;SDS011;19280;42.646;21.150;2023-04-07T11:47:52;17.20;;;6.20;;
32918;SDS011;19280;42.646;21.150;2023-04-07T11:53:13;18.42;;;6.43;;
32918;SDS011;19280;42.646;21.150;2023-04-07T11:55:57;17.23;;;6.45;;
32918;SDS011;19280;42.646;21.150;2023-04-07T11:58:23;21.73;;;6.40;;
32918;SDS011;19280;42.646;21.150;2023-04-07T12:00:53;15.02;;;6.60;;
32918;SDS011;19280;42.646;21.150;2023-04-07T12:03:20;9.77;;;5.50;;
32918;SDS011;19280;42.646;21.150;2023-04-07T12:05:46;11.40;;;5.72;;
32918;SDS011;19280;42.646;21.150;2023-04-07T12:08:12;9.88;;;4.45;;
32918;SDS011;19280;42.646;21.150;2023-04-07T12:10:40;10.05;;;5.78;;
32918;SDS011;19280;42.646;21.150;2023-04-07T12:13:07;11.98;;;5.70;;
32918;SDS011;19280;42.646;21.150;2023-04-07T12:15:34;15.95;;;6.38;;
32918;SDS011;19280;42.646;21.150;2023-04-07T12:18:03;13.20;;;5.75;;
32918;SDS011;19280;42.646;21.150;2023-04-07T12:20:29;11.50;;;5.63;;
32918;SDS011;19280;42.646;21.150;2023-04-07T12:22:56;15.05;;;6.65;;
32918;SDS011;19280;42.646;21.150;2023-04-07T12:25:22;14.05;;;6.13;;
32918;SDS011;19280;42.646;21.150;2023-04-07T12:27:49;14.43;;;5.75;;
32918;SDS011;19280;42.646;21.150;2023-04-07T12:30:15;14.23;;;6.20;;
32918;SDS011;19280;42.646;21.150;2023-04-07T12:32:41;10.98;;;6.32;;
32918;SDS011;19280;42.646;21.150;2023-04-07T12:35:07;8.10;;;5.57;;
32918;SDS011;19280;42.646;21.150;2023-04-07T12:37:33;11.32;;;6.30;;
32918;SDS011;19280;42.646;21.150;2023-04-07T12:39:59;13.45;;;5.50;;
32918;SDS011;19280;42.646;21.150;2023-04-07T12:42:25;9.45;;;6.13;;
32918;SDS011;19280;42.646;21.150;2023-04-07T12:44:51;11.05;;;5.95;;
32918;SDS011;19280;42.646;21.150;2023-04-07T12:47:18;13.50;;;6.63;;
32918;SDS011;19280;42.646;21.150;2023-04-07T12:49:44;13.90;;;6.38;;
32918;SDS011;19280;42.646;21.150;2023-04-07T12:52:10;15.68;;;6.57;;
32918;SDS011;19280;42.646;21.150;2023-04-07T12:54:36;11.65;;;6.32;;
32918;SDS011;19280;42.646;21.150;2023-04-07T12:57:02;8.45;;;5.97;;
32918;SDS011;19280;42.646;21.150;2023-04-07T12:59:28;16.83;;;7.10;;
32918;SDS011;19280;42.646;21.150;2023-04-07T13:01:55;13.10;;;7.53;;
32918;SDS011;19280;42.646;21.150;2023-04-07T13:04:21;11.50;;;6.13;;
32918;SDS011;19280;42.646;21.150;2023-04-07T13:06:48;10.07;;;6.05;;
32918;SDS011;19280;42.646;21.150;2023-04-07T13:09:15;13.05;;;6.28;;
32918;SDS011;19280;42.646;21.150;2023-04-07T13:11:41;11.30;;;6.70;;
32918;SDS011;19280;42.646;21.150;2023-04-07T13:14:07;10.50;;;6.22;;
32918;SDS011;19280;42.646;21.150;2023-04-07T13:16:33;19.17;;;6.57;;
32918;SDS011;19280;42.646;21.150;2023-04-07T13:18:59;11.35;;;6.18;;
32918;SDS011;19280;42.646;21.150;2023-04-07T13:21:26;12.90;;;6.90;;
32918;SDS011;19280;42.646;21.150;2023-04-07T13:23:52;13.82;;;7.32;;
32918;SDS011;19280;42.646;21.150;2023-04-07T13:26:18;12.18;;;7.50;;
32918;SDS011;19280;42.646;21.150;2023-04-07T13:28:44;11.85;;;6.75;;
32918;SDS011;19280;42.646;21.150;2023-04-07T13:31:12;10.32;;;7.18;;
32918;SDS011;19280;42.646;21.150;2023-04-07T13:33:40;13.40;;;6.57;;
32918;SDS011;19280;42.646;21.150;2023-04-07T13:36:06;11.52;;;6.80;;
32918;SDS011;19280;42.646;21.150;2023-04-07T13:38:32;11.52;;;6.75;;
32918;SDS011;19280;42.646;21.150;2023-04-07T13:40:58;17.10;;;8.52;;
32918;SDS011;19280;42.646;21.150;2023-04-07T13:43:24;15.57;;;6.53;;
32918;SDS011;19280;42.646;21.150;2023-04-07T13:45:50;9.50;;;6.65;;
32918;SDS011;19280;42.646;21.150;2023-04-07T13:48:16;17.08;;;7.22;;
32918;SDS011;19280;42.646;21.150;2023-04-07T13:50:43;17.67;;;7.82;;
32918;SDS011;19280;42.646;21.150;2023-04-07T13:53:09;16.67;;;7.15;;
32918;SDS011;19280;42.646;21.150;2023-04-07T13:55:35;17.75;;;8.88;;
32918;SDS011;19280;42.646;21.150;2023-04-07T13:58:01;14.07;;;7.93;;
32918;SDS011;19280;42.646;21.150;2023-04-07T14:00:27;19.48;;;8.75;;
32918;SDS011;19280;42.646;21.150;2023-04-07T14:02:53;15.20;;;7.28;;
32918;SDS011;19280;42.646;21.150;2023-04-07T14:05:22;16.25;;;7.55;;
32918;SDS011;19280;42.646;21.150;2023-04-07T14:07:48;14.80;;;7.63;;
32918;SDS011;19280;42.646;21.150;2023-04-07T14:10:15;16.48;;;7.85;;
32918;SDS011;19280;42.646;21.150;2023-04-07T14:12:41;12.85;;;8.35;;
32918;SDS011;19280;42.646;21.150;2023-04-07T14:15:07;19.05;;;7.75;;
32918;SDS011;19280;42.646;21.150;2023-04-07T14:17:33;10.95;;;6.57;;
32918;SDS011;19280;42.646;21.150;2023-04-07T14:19:59;13.38;;;9.07;;
32918;SDS011;19280;42.646;21.150;2023-04-07T14:22:27;12.75;;;8.25;;
32918;SDS011;19280;42.646;21.150;2023-04-07T14:24:53;13.00;;;8.38;;
32918;SDS011;19280;42.646;21.150;2023-04-07T14:27:20;16.58;;;7.50;;
32918;SDS011;19280;42.646;21.150;2023-04-07T14:29:46;10.55;;;6.72;;
32918;SDS011;19280;42.646;21.150;2023-04-07T14:32:13;18.63;;;9.05;;
32918;SDS011;19280;42.646;21.150;2023-04-07T14:34:39;11.40;;;7.47;;